createdAt,value
2018-04-13T00:02:26.397Z,61.23
2018-04-13T00:04:55.121Z,61.62
2018-04-13T00:07:23.851Z,61.85
2018-04-13T00:09:52.661Z,61.91
2018-04-13T00:12:21.384Z,61.98
2018-04-13T00:14:50.125Z,62.28
2018-04-13T00:17:18.829Z,62.44
2018-04-13T00:19:47.651Z,62.11
2018-04-13T00:22:16.474Z,62.50
2018-04-13T00:24:45.295Z,62.45
2018-04-13T00:27:14.117Z,62.48
2018-04-13T00:29:43.327Z,62.51
2018-04-13T00:32:12.062Z,62.60
2018-04-13T00:34:40.888Z,62.62
2018-04-13T00:37:09.554Z,62.29
2018-04-13T00:39:38.336Z,62.17
2018-04-13T00:42:07.054Z,62.32
2018-04-13T00:44:35.873Z,62.36
2018-04-13T00:47:04.513Z,62.67
2018-04-13T00:49:33.321Z,62.53
2018-04-13T00:52:02.044Z,62.63
2018-04-13T00:54:30.747Z,62.50
2018-04-13T00:56:59.463Z,62.55
2018-04-13T00:59:28.802Z,62.69
2018-04-13T01:01:57.468Z,62.97
2018-04-13T01:04:26.251Z,63.37
2018-04-13T01:06:54.972Z,63.35
2018-04-13T01:09:23.796Z,63.69
2018-04-13T01:11:52.522Z,64.05
2018-04-13T01:14:21.442Z,64.25
2018-04-13T01:16:50.173Z,64.46
2018-04-13T01:19:19.083Z,64.41
2018-04-13T01:21:47.910Z,64.71
2018-04-13T01:24:16.727Z,64.78
2018-04-13T01:26:45.460Z,64.97
2018-04-13T01:29:14.179Z,64.74
2018-04-13T01:31:43.511Z,64.68
2018-04-13T01:34:12.226Z,64.67
2018-04-13T01:36:40.938Z,63.76
2018-04-13T01:39:09.724Z,63.59
2018-04-13T01:41:38.442Z,64.07
2018-04-13T01:44:07.206Z,64.53
2018-04-13T01:46:36.026Z,64.81
2018-04-13T01:49:04.852Z,65.17
2018-04-13T01:51:33.633Z,65.62
2018-04-13T01:54:02.296Z,66.10
2018-04-13T01:56:31.088Z,66.33
2018-04-13T01:58:59.839Z,66.84
2018-04-13T02:01:28.564Z,67.01
2018-04-13T02:03:57.382Z,67.31
2018-04-13T02:06:25.992Z,67.84
2018-04-13T02:08:55.397Z,68.14
2018-04-13T02:11:24.251Z,68.18
2018-04-13T02:13:53.033Z,68.55
2018-04-13T02:16:21.795Z,68.59
2018-04-13T02:18:50.515Z,68.55
2018-04-13T02:21:19.246Z,68.53
2018-04-13T02:23:47.959Z,69.29
2018-04-13T02:26:16.595Z,69.19
2018-04-13T02:28:45.305Z,69.14
2018-04-13T02:31:13.923Z,69.11
2018-04-13T02:33:42.645Z,69.09
2018-04-13T02:36:11.369Z,69.23
2018-04-13T02:38:40.000Z,69.02
2018-04-13T02:41:08.734Z,69.28
2018-04-13T02:43:37.436Z,69.34
2018-04-13T02:46:06.857Z,69.47
2018-04-13T02:48:35.781Z,69.24
2018-04-13T02:51:04.591Z,69.57
2018-04-13T02:53:33.324Z,69.64
2018-04-13T02:56:02.043Z,69.34
2018-04-13T02:58:30.778Z,69.68
2018-04-13T03:00:59.511Z,69.87
2018-04-13T03:03:28.314Z,70.02
2018-04-13T03:05:57.015Z,70.63
2018-04-13T03:08:25.723Z,70.50
2018-04-13T03:10:54.372Z,70.89
2018-04-13T03:13:23.104Z,70.90
2018-04-13T03:15:52.627Z,70.73
2018-04-13T03:18:21.245Z,70.78
2018-04-13T03:20:49.867Z,70.76
2018-04-13T03:23:18.653Z,70.62
2018-04-13T03:25:47.228Z,71.01
2018-04-13T03:28:15.844Z,71.27
2018-04-13T03:30:44.555Z,70.97
2018-04-13T03:33:13.294Z,71.19
2018-04-13T03:35:41.903Z,71.50
2018-04-13T03:38:10.718Z,71.45
2018-04-13T03:40:39.355Z,71.23
2018-04-13T03:43:08.075Z,71.47
2018-04-13T03:45:37.184Z,71.58
2018-04-13T03:48:06.030Z,71.56
2018-04-13T03:50:34.730Z,71.80
2018-04-13T03:53:03.338Z,72.15
2018-04-13T03:55:31.955Z,72.23
2018-04-13T03:58:00.596Z,72.05
2018-04-13T04:00:29.316Z,72.15
2018-04-13T04:02:58.036Z,71.95
2018-04-13T04:05:26.835Z,71.97
2018-04-13T04:07:55.385Z,71.71
2018-04-13T04:10:24.104Z,71.60
2018-04-13T04:12:52.823Z,71.36
2018-04-13T04:15:21.529Z,70.93
2018-04-13T04:17:50.166Z,70.85
2018-04-13T04:20:31.633Z,70.46
2018-04-13T04:23:12.097Z,69.90
2018-04-13T04:25:52.661Z,69.08
2018-04-13T04:28:21.384Z,67.96
2018-04-13T04:30:50.103Z,66.98
2018-04-13T04:33:18.826Z,66.64
2018-04-13T04:35:47.436Z,65.94
2018-04-13T04:38:16.270Z,65.20
2018-04-13T04:40:44.892Z,64.20
2018-04-13T04:43:13.529Z,63.54
2018-04-13T04:45:42.237Z,62.92
2018-04-13T04:48:10.865Z,61.75
2018-04-13T04:50:39.576Z,60.86
2018-04-13T04:53:08.208Z,59.37
2018-04-13T04:55:36.842Z,56.84
2018-04-13T04:58:05.860Z,55.54
2018-04-13T05:00:34.474Z,54.26
2018-04-13T05:03:03.169Z,52.92
2018-04-13T05:05:31.910Z,52.05
2018-04-13T05:08:00.636Z,50.82
2018-04-13T05:10:29.256Z,50.50
2018-04-13T05:12:58.076Z,50.56
2018-04-13T05:15:26.722Z,49.66
2018-04-13T05:17:55.498Z,48.78
2018-04-13T05:20:24.242Z,48.26
2018-04-13T05:22:52.965Z,47.81
2018-04-13T05:25:21.606Z,47.00
2018-04-13T05:27:50.409Z,46.31
2018-04-13T05:30:19.136Z,46.70
2018-04-13T05:32:47.750Z,45.97
2018-04-13T05:35:17.180Z,44.44
2018-04-13T05:37:46.004Z,45.10
2018-04-13T05:40:14.622Z,42.93
2018-04-13T05:42:43.241Z,42.36
2018-04-13T05:45:11.864Z,41.51
2018-04-13T05:47:40.483Z,41.31
2018-04-13T05:50:09.208Z,41.64
2018-04-13T05:52:37.851Z,41.18
2018-04-13T05:55:06.653Z,40.81
2018-04-13T05:57:35.372Z,40.08
2018-04-13T06:00:04.154Z,40.22
2018-04-13T06:02:32.918Z,39.94
2018-04-13T06:05:01.654Z,39.37
2018-04-13T06:07:30.863Z,38.73
2018-04-13T06:09:59.583Z,38.36
2018-04-13T06:12:28.308Z,37.40
2018-04-13T06:14:57.030Z,36.76
2018-04-13T06:17:25.748Z,36.57
2018-04-13T06:19:54.473Z,36.40
2018-04-13T06:22:23.194Z,36.64
2018-04-13T06:24:51.821Z,35.76
2018-04-13T06:27:20.448Z,36.14
2018-04-13T06:29:49.080Z,33.60
2018-04-13T06:32:17.854Z,35.22
2018-04-13T06:34:46.601Z,34.28
2018-04-13T06:37:15.301Z,34.52
2018-04-13T06:39:44.045Z,34.71
2018-04-13T06:42:12.771Z,32.70
2018-04-13T06:44:42.000Z,33.62
2018-04-13T06:47:10.584Z,31.75
2018-04-13T06:49:39.199Z,33.26
2018-04-13T06:52:07.955Z,32.17
2018-04-13T06:54:36.506Z,31.59
2018-04-13T06:57:05.174Z,29.86
2018-04-13T06:59:34.727Z,29.94
2018-04-13T07:02:03.553Z,29.87
2018-04-13T07:04:32.182Z,29.57
2018-04-13T07:07:01.695Z,29.29
2018-04-13T07:09:30.387Z,29.38
2018-04-13T07:11:59.071Z,29.65
2018-04-13T07:14:27.858Z,29.07
2018-04-13T07:16:56.499Z,29.20
2018-04-13T07:19:25.305Z,29.76
2018-04-13T07:21:53.924Z,29.02
2018-04-13T07:24:22.500Z,28.43
2018-04-13T07:26:51.165Z,27.36
2018-04-13T07:29:19.874Z,28.98
2018-04-13T07:31:48.752Z,28.67
2018-04-13T07:34:17.250Z,29.09
2018-04-13T07:36:45.955Z,28.35
2018-04-13T07:39:15.329Z,28.48
2018-04-13T07:41:44.082Z,27.46
2018-04-13T07:44:12.799Z,26.41
2018-04-13T07:46:42.058Z,28.21
2018-04-13T07:49:10.671Z,26.28
2018-04-13T07:51:39.492Z,26.75
2018-04-13T07:54:08.212Z,25.13
2018-04-13T07:56:37.033Z,25.82
2018-04-13T07:59:05.757Z,25.40
2018-04-13T08:01:34.586Z,26.78
2018-04-13T08:04:03.400Z,26.14
2018-04-13T08:06:32.121Z,25.54
2018-04-13T08:09:00.682Z,27.92
2018-04-13T08:11:29.533Z,27.10
2018-04-13T08:13:58.653Z,26.60
2018-04-13T08:16:27.412Z,25.24
2018-04-13T08:18:56.131Z,24.77
2018-04-13T08:21:24.855Z,25.74
2018-04-13T08:23:53.478Z,24.83
2018-04-13T08:26:22.041Z,25.50
2018-04-13T08:28:50.661Z,26.01
2018-04-13T08:31:19.252Z,25.70
2018-04-13T08:33:47.861Z,25.88
2018-04-13T08:36:16.450Z,26.03
2018-04-13T08:38:45.205Z,26.99
2018-04-13T08:41:13.932Z,25.79
2018-04-13T08:43:42.564Z,26.62
2018-04-13T08:46:11.272Z,24.67
2018-04-13T08:48:40.049Z,25.31
2018-04-13T08:51:08.819Z,26.01
2018-04-13T08:53:37.534Z,26.65
2018-04-13T08:56:06.181Z,26.29
2018-04-13T08:58:34.881Z,25.51
2018-04-13T09:01:03.608Z,25.63
2018-04-13T09:03:32.324Z,26.29
2018-04-13T09:06:01.147Z,25.88
2018-04-13T09:08:29.875Z,25.99
2018-04-13T09:10:58.570Z,25.58
2018-04-13T09:13:28.083Z,25.94
2018-04-13T09:15:56.864Z,24.84
2018-04-13T09:18:25.457Z,24.26
2018-04-13T09:20:54.105Z,24.69
2018-04-13T09:23:22.806Z,24.61
2018-04-13T09:25:51.524Z,23.87
2018-04-13T09:28:20.244Z,23.95
2018-04-13T09:30:49.936Z,23.27
2018-04-13T09:33:18.630Z,23.52
2018-04-13T09:35:47.421Z,23.75
2018-04-13T09:38:16.047Z,23.40
2018-04-13T09:40:44.959Z,23.14
2018-04-13T09:43:13.585Z,22.45
2018-04-13T09:45:42.406Z,22.43
2018-04-13T09:48:11.123Z,22.75
2018-04-13T09:50:39.744Z,22.88
2018-04-13T09:53:08.406Z,22.72
2018-04-13T09:55:37.187Z,21.30
2018-04-13T09:58:05.910Z,22.42
2018-04-13T10:00:34.834Z,21.66
2018-04-13T10:03:03.559Z,21.46
2018-04-13T10:05:32.290Z,21.33
2018-04-13T10:08:01.010Z,20.74
2018-04-13T10:10:30.307Z,21.17
2018-04-13T10:12:58.952Z,21.15
2018-04-13T10:15:27.666Z,21.90
2018-04-13T10:17:57.090Z,22.00
2018-04-13T10:20:25.657Z,22.00
2018-04-13T10:22:54.229Z,21.59
2018-04-13T10:25:22.855Z,21.41
2018-04-13T10:27:51.488Z,20.62
2018-04-13T10:30:20.200Z,20.58
2018-04-13T10:32:48.841Z,21.41
2018-04-13T10:35:17.541Z,21.98
2018-04-13T10:37:46.164Z,20.83
2018-04-13T10:40:14.859Z,20.79
2018-04-13T10:42:43.519Z,20.29
2018-04-13T10:45:12.160Z,21.60
2018-04-13T10:47:41.457Z,21.33
2018-04-13T10:50:10.174Z,22.02
2018-04-13T10:52:38.795Z,20.40
2018-04-13T10:55:07.720Z,20.33
2018-04-13T10:57:36.347Z,20.70
2018-04-13T11:00:04.974Z,20.65
2018-04-13T11:02:33.682Z,21.42
2018-04-13T11:05:02.405Z,21.17
2018-04-13T11:07:31.199Z,21.89
2018-04-13T11:09:59.950Z,21.16
2018-04-13T11:12:28.661Z,22.03
2018-04-13T11:14:57.302Z,21.78
2018-04-13T11:17:26.015Z,23.10
2018-04-13T11:19:54.619Z,23.45
2018-04-13T11:22:23.360Z,23.29
2018-04-13T11:24:55.518Z,22.49
2018-04-13T11:27:25.108Z,23.03
2018-04-13T11:29:53.838Z,23.88
2018-04-13T11:32:22.563Z,23.18
2018-04-13T11:34:51.280Z,25.05
2018-04-13T11:37:19.896Z,26.58
2018-04-13T11:39:50.840Z,27.14
2018-04-13T11:42:19.407Z,27.21
2018-04-13T11:44:48.174Z,28.25
2018-04-13T11:47:17.353Z,28.75
2018-04-13T11:49:46.121Z,29.85
2018-04-13T11:52:14.845Z,29.28
2018-04-13T11:54:43.470Z,28.40
2018-04-13T11:57:14.722Z,28.16
2018-04-13T11:59:43.480Z,28.91
2018-04-13T12:02:13.045Z,29.25
2018-04-13T12:04:41.685Z,29.70
2018-04-13T12:07:10.285Z,28.48
2018-04-13T12:09:38.946Z,28.71
2018-04-13T12:12:07.547Z,28.36
2018-04-13T12:14:36.255Z,27.90
2018-04-13T12:17:04.879Z,27.49
2018-04-13T12:19:33.569Z,27.30
2018-04-13T12:22:02.315Z,27.07
2018-04-13T12:24:31.039Z,27.05
2018-04-13T12:26:59.862Z,27.76
2018-04-13T12:29:28.585Z,26.83
2018-04-13T12:31:57.404Z,26.94
2018-04-13T12:34:26.826Z,27.56
2018-04-13T12:36:55.657Z,26.89
2018-04-13T12:39:24.384Z,27.42
2018-04-13T12:41:53.796Z,27.29
2018-04-13T12:44:22.821Z,27.41
2018-04-13T12:46:51.642Z,27.62
2018-04-13T12:49:20.285Z,26.82
2018-04-13T12:51:48.987Z,26.54
2018-04-13T12:54:17.614Z,26.83
2018-04-13T12:56:46.496Z,27.13
2018-04-13T12:59:15.057Z,26.78
2018-04-13T13:01:43.678Z,27.59
2018-04-13T13:04:12.375Z,27.65
2018-04-13T13:06:41.428Z,27.73
2018-04-13T13:09:10.142Z,28.33
2018-04-13T13:11:38.829Z,26.14
2018-04-13T13:14:07.689Z,27.47
2018-04-13T13:16:36.564Z,28.03
2018-04-13T13:19:05.176Z,27.84
2018-04-13T13:21:33.950Z,27.00
2018-04-13T13:24:02.673Z,27.11
2018-04-13T13:26:31.495Z,25.82
2018-04-13T13:29:00.217Z,26.23
2018-04-13T13:31:28.941Z,25.35
2018-04-13T13:33:58.065Z,25.71
2018-04-13T13:36:26.783Z,26.08
2018-04-13T13:38:55.410Z,26.55
2018-04-13T13:41:24.129Z,26.66
2018-04-13T13:43:52.859Z,27.20
2018-04-13T13:46:21.608Z,27.52
2018-04-13T13:48:50.301Z,27.36
2018-04-13T13:51:18.999Z,26.68
2018-04-13T13:53:47.736Z,26.67
2018-04-13T13:56:16.378Z,26.90
2018-04-13T13:58:44.992Z,26.94
2018-04-13T14:01:13.806Z,27.57
2018-04-13T14:03:42.461Z,26.74
2018-04-13T14:06:11.125Z,26.59
2018-04-13T14:08:39.981Z,26.56
2018-04-13T14:11:08.580Z,26.21
2018-04-13T14:13:37.317Z,25.85
2018-04-13T14:16:06.031Z,25.19
2018-04-13T14:18:34.663Z,25.18
2018-04-13T14:21:03.375Z,25.72
2018-04-13T14:23:32.096Z,25.53
2018-04-13T14:26:00.718Z,25.34
2018-04-13T14:28:29.459Z,26.11
2018-04-13T14:30:58.270Z,26.37
2018-04-13T14:33:26.988Z,26.20
2018-04-13T14:35:55.710Z,26.45
2018-04-13T14:38:24.956Z,27.06
2018-04-13T14:40:53.716Z,27.36
2018-04-13T14:43:22.812Z,27.08
2018-04-13T14:45:51.417Z,27.62
2018-04-13T14:48:20.088Z,26.91
2018-04-13T14:50:48.844Z,27.30
2018-04-13T14:53:17.547Z,27.34
2018-04-13T14:55:46.139Z,26.89
2018-04-13T14:58:14.714Z,27.41
2018-04-13T15:00:43.334Z,27.88
2018-04-13T15:03:11.868Z,26.97
2018-04-13T15:05:40.571Z,27.39
2018-04-13T15:08:09.096Z,27.21
2018-04-13T15:10:37.686Z,27.56
2018-04-13T15:13:06.296Z,27.69
2018-04-13T15:15:34.845Z,28.49
2018-04-13T15:18:03.405Z,28.99
2018-04-13T15:20:32.399Z,29.05
2018-04-13T15:23:00.923Z,29.61
2018-04-13T15:25:29.492Z,29.69
2018-04-13T15:27:58.047Z,30.06
2018-04-13T15:30:26.654Z,30.44
2018-04-13T15:32:55.244Z,30.48
2018-04-13T15:35:23.784Z,30.68
2018-04-13T15:37:52.264Z,30.19
2018-04-13T15:40:20.839Z,30.45
2018-04-13T15:42:49.345Z,30.50
2018-04-13T15:45:17.971Z,30.32
2018-04-13T15:47:46.530Z,30.36
2018-04-13T15:50:15.259Z,30.37
2018-04-13T15:52:44.440Z,30.56
2018-04-13T15:55:12.981Z,30.40
2018-04-13T15:57:41.530Z,30.65
2018-04-13T16:00:10.085Z,30.64
2018-04-13T16:02:38.612Z,31.07
2018-04-13T16:05:07.109Z,31.32
2018-04-13T16:07:35.623Z,31.49
2018-04-13T16:10:04.176Z,31.45
2018-04-13T16:12:32.665Z,31.88
2018-04-13T16:15:01.189Z,32.12
2018-04-13T16:17:29.877Z,32.39
2018-04-13T16:19:58.451Z,32.78
2018-04-13T16:22:27.039Z,32.71
2018-04-13T16:24:55.565Z,32.99
2018-04-13T16:27:24.060Z,33.11
2018-04-13T16:29:53.813Z,33.22
2018-04-13T16:32:22.458Z,33.38
2018-04-13T16:34:51.147Z,34.37
2018-04-13T16:37:19.838Z,34.73
2018-04-13T16:39:48.596Z,34.93
2018-04-13T16:42:17.111Z,35.33
2018-04-13T16:44:45.765Z,35.29
2018-04-13T16:47:14.277Z,35.44
2018-04-13T16:49:42.830Z,35.78
2018-04-13T16:52:11.405Z,35.98
2018-04-13T16:54:40.021Z,35.55
2018-04-13T16:57:09.357Z,35.84
2018-04-13T16:59:37.931Z,35.74
2018-04-13T17:02:06.483Z,36.66
2018-04-13T17:04:35.030Z,37.19
2018-04-13T17:07:03.627Z,37.07
2018-04-13T17:09:32.194Z,37.82
2018-04-13T17:12:00.800Z,38.37
2018-04-13T17:14:29.346Z,38.15
2018-04-13T17:16:57.910Z,38.41
2018-04-13T17:19:26.452Z,38.83
2018-04-13T17:21:54.928Z,39.69
2018-04-13T17:24:23.582Z,39.69
2018-04-13T17:26:52.096Z,40.10
2018-04-13T17:29:21.374Z,40.12
2018-04-13T17:31:49.920Z,40.08
2018-04-13T17:34:18.569Z,40.46
2018-04-13T17:36:47.927Z,41.34
2018-04-13T17:39:16.587Z,41.45
2018-04-13T17:41:45.233Z,41.68
2018-04-13T17:44:13.720Z,41.87
2018-04-13T17:46:42.374Z,41.78
2018-04-13T17:49:10.941Z,42.64
2018-04-13T17:51:39.621Z,42.54
2018-04-13T17:54:08.237Z,42.46
2018-04-13T17:56:36.930Z,43.15
2018-04-13T17:59:05.482Z,42.91
2018-04-13T18:01:34.051Z,43.42
2018-04-13T18:04:03.607Z,43.42
2018-04-13T18:06:32.868Z,43.61
2018-04-13T18:09:01.400Z,43.57
2018-04-13T18:11:29.993Z,43.99
2018-04-13T18:13:58.481Z,44.33
2018-04-13T18:16:27.100Z,44.81
2018-04-13T18:18:55.758Z,45.13
2018-04-13T18:21:24.299Z,45.80
2018-04-13T18:23:52.905Z,46.67
2018-04-13T18:26:21.473Z,46.35
2018-04-13T18:28:49.940Z,45.14
2018-04-13T18:31:18.522Z,45.87
2018-04-13T18:33:47.096Z,46.28
2018-04-13T18:36:15.706Z,46.81
2018-04-13T18:38:44.212Z,47.04
2018-04-13T18:41:12.852Z,47.29
2018-04-13T18:43:42.050Z,47.19
2018-04-13T18:46:10.630Z,47.79
2018-04-13T18:48:39.219Z,48.52
2018-04-13T18:51:07.738Z,48.39
2018-04-13T18:53:36.760Z,48.36
2018-04-13T18:56:05.300Z,47.93
2018-04-13T18:58:33.823Z,47.97
2018-04-13T19:01:02.327Z,47.80
2018-04-13T19:03:30.906Z,47.81
2018-04-13T19:05:59.405Z,48.35
2018-04-13T19:08:27.997Z,48.10
2018-04-13T19:10:56.580Z,48.36
2018-04-13T19:13:25.391Z,49.00
2018-04-13T19:15:54.267Z,49.24
2018-04-13T19:18:22.793Z,49.40
2018-04-13T19:20:51.338Z,49.58
2018-04-13T19:23:20.787Z,47.65
2018-04-13T19:25:49.275Z,47.84
2018-04-13T19:28:17.802Z,48.34
2018-04-13T19:30:46.362Z,47.74
2018-04-13T19:33:14.972Z,48.59
2018-04-13T19:35:43.611Z,48.61
2018-04-13T19:38:12.137Z,48.94
2018-04-13T19:40:40.871Z,49.11
2018-04-13T19:43:09.497Z,49.36
2018-04-13T19:45:38.022Z,49.69
2018-04-13T19:48:07.365Z,49.93
2018-04-13T19:50:35.922Z,50.53
2018-04-13T19:53:04.453Z,50.49
2018-04-13T19:55:33.004Z,50.72
2018-04-13T19:58:01.554Z,51.20
2018-04-13T20:00:30.125Z,51.90
2018-04-13T20:02:58.769Z,52.30
2018-04-13T20:05:27.293Z,52.51
2018-04-13T20:07:55.916Z,52.55
2018-04-13T20:10:24.448Z,53.11
2018-04-13T20:12:53.021Z,53.74
2018-04-13T20:15:28.505Z,53.66
2018-04-13T20:17:57.068Z,53.82
2018-04-13T20:20:25.719Z,53.83
2018-04-13T20:22:54.458Z,54.04
2018-04-13T20:25:23.490Z,54.24
2018-04-13T20:27:52.098Z,54.50
2018-04-13T20:30:22.429Z,54.46
2018-04-13T20:32:51.090Z,54.71
2018-04-13T20:35:19.672Z,54.96
2018-04-13T20:37:48.295Z,55.15
2018-04-13T20:40:16.800Z,55.22
2018-04-13T20:42:45.543Z,55.13
2018-04-13T20:45:14.037Z,54.95
2018-04-13T20:47:42.555Z,55.19
2018-04-13T20:50:11.270Z,55.41
2018-04-13T20:52:39.828Z,55.82
2018-04-13T20:55:08.450Z,55.97
2018-04-13T20:57:37.777Z,55.96
2018-04-13T21:00:06.489Z,55.99
2018-04-13T21:02:35.034Z,55.92
2018-04-13T21:05:03.640Z,55.91
2018-04-13T21:07:32.114Z,56.32
2018-04-13T21:10:00.649Z,56.53
2018-04-13T21:12:29.189Z,56.44
2018-04-13T21:14:57.949Z,56.54
2018-04-13T21:17:26.477Z,56.86
2018-04-13T21:19:57.020Z,56.78
2018-04-13T21:22:25.906Z,56.87
2018-04-13T21:24:54.447Z,56.80
2018-04-13T21:27:23.838Z,57.07
2018-04-13T21:29:52.391Z,57.15
2018-04-13T21:32:20.875Z,57.18
2018-04-13T21:34:49.592Z,57.28
2018-04-13T21:37:18.748Z,56.97
2018-04-13T21:39:47.352Z,57.13
2018-04-13T21:42:15.950Z,57.37
2018-04-13T21:44:44.501Z,57.48
2018-04-13T21:47:13.099Z,57.58
2018-04-13T21:49:41.588Z,57.96
2018-04-13T21:52:10.261Z,58.33
2018-04-13T21:54:38.779Z,57.75
2018-04-13T21:57:07.350Z,58.02
2018-04-13T21:59:35.879Z,57.37
2018-04-13T22:02:04.400Z,56.99
2018-04-13T22:04:32.940Z,57.96
2018-04-13T22:07:01.584Z,57.88
2018-04-13T22:09:30.301Z,58.20
2018-04-13T22:11:58.798Z,58.71
2018-04-13T22:14:39.218Z,58.97
2018-04-13T22:17:08.445Z,60.02
2018-04-13T22:19:36.966Z,60.59
2018-04-13T22:22:05.518Z,60.42
2018-04-13T22:24:34.077Z,61.71
2018-04-13T22:27:02.709Z,61.71
2018-04-13T22:29:31.218Z,62.02
2018-04-13T22:31:59.721Z,61.99
2018-04-13T22:34:28.895Z,61.86
2018-04-13T22:36:57.488Z,62.06
2018-04-13T22:39:25.972Z,62.15
2018-04-13T22:41:54.482Z,63.71
2018-04-13T22:44:23.050Z,64.68
2018-04-13T22:46:51.612Z,64.97
2018-04-13T22:49:20.875Z,64.43
2018-04-13T22:51:49.523Z,64.80
2018-04-13T22:54:18.241Z,64.32
2018-04-13T22:56:46.797Z,64.63
2018-04-13T22:59:15.327Z,64.64
2018-04-13T23:01:43.912Z,64.90
2018-04-13T23:04:12.439Z,64.94
2018-04-13T23:06:41.042Z,65.12
2018-04-13T23:09:09.640Z,66.01
2018-04-13T23:11:38.304Z,66.87
2018-04-13T23:14:07.008Z,66.86
2018-04-13T23:16:35.670Z,67.18
2018-04-13T23:19:04.751Z,67.44
2018-04-13T23:21:33.349Z,67.45
2018-04-13T23:24:01.905Z,66.63
2018-04-13T23:26:30.496Z,66.80
2018-04-13T23:28:59.136Z,66.75
2018-04-13T23:31:27.701Z,67.35
2018-04-13T23:33:56.271Z,67.42
2018-04-13T23:36:24.912Z,67.36
2018-04-13T23:38:53.488Z,67.05
2018-04-13T23:41:22.142Z,66.02
2018-04-13T23:43:50.757Z,66.09
2018-04-13T23:46:19.386Z,66.19
2018-04-13T23:48:47.924Z,67.15
2018-04-13T23:51:16.508Z,67.67
2018-04-13T23:53:46.703Z,67.21
2018-04-13T23:56:15.270Z,67.88
2018-04-13T23:58:43.854Z,69.27
